Time;durP1;ratioP1;P1;durP2;ratioP2;P2;SDS_P1;SDS_P2;PMS_P1;PMS_P2;Temp;Humidity;BMP_temperature;BMP_pressure;BME280_temperature;BME280_humidity;BME280_pressure;Samples;Min_cycle;Max_cycle;Signal;HPM_P1;HPM_P2
2023/04/01 00:01:27;;;;;;;12.50;10.20;;;;;;;20.37;52.74;98259.51;104730;1251;74377;-71
2023/04/01 00:03:56;;;;;;;11.40;9.40;;;;;;;20.36;53.09;98261.08;104515;1254;71592;-70
2023/04/01 00:06:25;;;;;;;11.10;10.00;;;;;;;20.36;52.70;98265.64;104729;1253;74134;-71
2023/04/01 00:08:53;;;;;;;11.50;10.40;;;;;;;20.34;52.57;98266.61;104708;1266;62655;-72
2023/04/01 00:11:27;;;;;;;12.80;10.90;;;;;;;20.30;52.23;98263.51;104777;1254;60783;-71
2023/04/01 00:13:55;;;;;;;11.40;10.30;;;;;;;20.27;52.68;98263.41;104618;1254;76049;-71
2023/04/01 00:16:25;;;;;;;11.50;10.30;;;;;;;20.26;53.20;98260.90;104494;1257;71478;-73
2023/04/01 00:18:53;;;;;;;12.10;10.80;;;;;;;20.34;52.48;98258.60;104670;1267;73766;-75
2023/04/01 00:21:22;;;;;;;13.00;11.20;;;;;;;20.47;51.90;98256.73;104610;1254;62667;-67
2023/04/01 00:23:51;;;;;;;12.40;11.20;;;;;;;20.47;52.13;98252.27;104570;1260;61128;-61
2023/04/01 00:26:21;;;;;;;13.40;11.30;;;;;;;20.50;51.91;98247.66;104574;1266;73694;-69
2023/04/01 00:28:50;;;;;;;13.70;10.60;;;;;;;20.54;51.79;98249.74;104598;1254;70913;-68
2023/04/01 00:31:20;;;;;;;15.00;12.50;;;;;;;20.59;51.67;98241.23;104311;1256;74022;-68
2023/04/01 00:33:49;;;;;;;12.20;11.00;;;;;;;20.66;51.39;98238.17;104514;1270;62440;-67
2023/04/01 00:36:21;;;;;;;12.40;11.10;;;;;;;20.66;51.10;98238.55;104363;1270;61812;-68
2023/04/01 00:38:51;;;;;;;16.60;13.10;;;;;;;20.72;50.96;98234.46;104820;1254;73302;-68
2023/04/01 00:41:21;;;;;;;17.20;12.40;;;;;;;20.78;50.80;98233.67;104576;1256;70164;-68
2023/04/01 00:43:50;;;;;;;13.50;11.60;;;;;;;20.71;50.90;98234.76;104597;1251;73541;-67
2023/04/01 00:46:19;;;;;;;12.80;11.30;;;;;;;20.86;50.50;98236.68;104909;1260;62957;-66
2023/04/01 00:48:52;;;;;;;14.10;12.50;;;;;;;20.96;50.45;98236.69;104309;1264;61199;-67
2023/04/01 00:51:23;;;;;;;15.20;10.70;;;;;;;20.90;50.40;98235.95;104621;1266;74552;-66
2023/04/01 00:53:54;;;;;;;12.60;11.30;;;;;;;20.99;50.20;98235.66;104597;1255;70632;-67
2023/04/01 00:56:25;;;;;;;13.10;11.70;;;;;;;21.02;49.66;98236.09;104549;1261;73379;-67
2023/04/01 00:59:08;;;;;;;14.50;12.20;;;;;;;20.88;50.37;98237.55;104371;1255;62344;-67
2023/04/01 01:01:36;;;;;;;15.00;12.90;;;;;;;20.88;50.04;98233.67;104506;1260;61025;-67
2023/04/01 01:04:06;;;;;;;16.80;12.60;;;;;;;20.81;50.76;98232.07;104252;1258;73543;-67
2023/04/01 01:06:58;;;;;;;13.50;12.10;;;;;;;20.71;50.94;98233.65;104427;1256;69917;-67
2023/04/01 01:09:33;;;;;;;15.50;11.60;;;;;;;20.78;50.48;98228.64;104667;1255;73047;-67
2023/04/01 01:12:11;;;;;;;15.40;12.10;;;;;;;20.72;50.66;98227.48;104229;1273;61821;-66
2023/04/01 01:15:07;;;;;;;13.50;11.00;;;;;;;20.60;51.42;98236.09;104685;1251;60849;-66
2023/04/01 01:17:44;;;;;;;13.90;12.40;;;;;;;20.57;51.15;98236.54;104563;1258;73756;-66
2023/04/01 01:20:13;;;;;;;13.50;12.10;;;;;;;20.54;51.83;98243.41;104730;1251;70267;-67
2023/04/01 01:23:31;;;;;;;16.90;12.60;;;;;;;20.55;51.12;98241.70;104433;1254;74140;-67
2023/04/01 01:26:35;;;;;;;12.10;10.80;;;;;;;20.60;51.83;98248.15;104643;1254;62845;-66
2023/04/01 01:29:25;;;;;;;13.10;11.60;;;;;;;20.58;51.30;98245.42;104325;1267;60869;-66
2023/04/01 01:31:56;;;;;;;12.90;10.80;;;;;;;20.50;51.12;98241.73;104482;1254;73118;-65
2023/04/01 01:35:06;;;;;;;14.50;12.20;;;;;;;20.41;51.83;98245.55;104444;1254;69847;-65
2023/04/01 01:37:36;;;;;;;16.00;11.70;;;;;;;20.37;52.37;98245.13;104433;1267;73077;-65
2023/04/01 01:40:06;;;;;;;14.50;11.50;;;;;;;20.36;51.60;98251.27;104521;1254;62370;-65
2023/04/01 01:42:37;;;;;;;13.10;11.60;;;;;;;20.35;51.94;98251.36;104694;1253;61439;-64
2023/04/01 01:45:06;;;;;;;12.20;10.80;;;;;;;20.39;51.42;98246.70;104377;1269;74019;-66
2023/04/01 01:47:35;;;;;;;14.90;11.30;;;;;;;20.37;52.01;98246.19;104365;1254;69882;-65
2023/04/01 01:50:06;;;;;;;13.70;11.90;;;;;;;20.34;51.94;98251.61;104300;1261;73674;-64
2023/04/01 01:52:34;;;;;;;12.70;11.40;;;;;;;20.38;51.60;98259.02;104327;1263;61988;-66
2023/04/01 01:55:25;;;;;;;15.40;12.90;;;;;;;20.21;52.62;98260.24;104402;1256;61231;-62
2023/04/01 01:57:53;;;;;;;13.70;11.90;;;;;;;20.18;52.71;98263.84;104309;1255;74185;-61
2023/04/01 02:00:22;;;;;;;11.30;10.20;;;;;;;20.14;53.25;98261.36;104478;1254;70772;-62
2023/04/01 02:02:50;;;;;;;16.10;11.80;;;;;;;20.11;52.56;98260.65;104327;1254;73825;-62
2023/04/01 02:05:26;;;;;;;17.00;12.70;;;;;;;20.06;52.97;98260.98;104469;1254;62855;-61
2023/04/01 02:08:02;;;;;;;13.80;12.40;;;;;;;20.09;53.39;98261.01;104257;1257;61679;-61
2023/04/01 02:10:32;;;;;;;14.00;11.60;;;;;;;20.08;53.22;98258.69;104267;1264;74403;-63
2023/04/01 02:13:12;;;;;;;16.50;12.20;;;;;;;19.96;53.47;98261.44;104431;1256;71111;-63
2023/04/01 02:15:44;;;;;;;14.50;12.50;;;;;;;19.91;53.88;98257.24;104744;1251;73589;-65
2023/04/01 02:18:13;;;;;;;13.40;11.60;;;;;;;20.00;53.61;98263.59;104392;1266;61889;-61
2023/04/01 02:20:43;;;;;;;12.10;10.70;;;;;;;20.03;53.69;98265.93;104383;1269;61620;-60
2023/04/01 02:23:12;;;;;;;14.00;11.80;;;;;;;20.14;53.21;98266.00;104571;1254;74448;-61
2023/04/01 02:25:41;;;;;;;13.40;11.60;;;;;;;20.16;53.20;98266.47;104488;1267;70148;-64
2023/04/01 02:28:09;;;;;;;12.70;11.00;;;;;;;20.18;52.56;98262.88;104201;1254;73973;-64
2023/04/01 02:30:39;;;;;;;12.60;11.00;;;;;;;20.16;52.92;98258.73;104500;1252;62597;-64
2023/04/01 02:33:10;;;;;;;12.70;11.40;;;;;;;19.95;53.27;98263.36;104283;1272;61610;-63
2023/04/01 02:35:38;;;;;;;15.40;13.10;;;;;;;19.83;54.01;98263.86;104464;1259;75645;-65
2023/04/01 02:38:07;;;;;;;13.90;12.50;;;;;;;19.84;54.07;98260.54;104438;1255;69835;-65
2023/04/01 02:40:46;;;;;;;14.80;11.90;;;;;;;19.90;53.43;98257.64;105219;1254;74014;-64
2023/04/01 02:43:16;;;;;;;13.80;11.60;;;;;;;19.93;53.20;98254.88;105254;1253;64423;-66
2023/04/01 02:45:44;;;;;;;13.40;12.00;;;;;;;19.83;54.10;98258.04;105365;1253;61686;-71
2023/04/01 02:48:14;;;;;;;13.00;11.40;;;;;;;19.91;53.80;98258.08;105318;1251;74302;-67
2023/04/01 02:50:43;;;;;;;13.90;11.80;;;;;;;19.92;54.21;98254.95;105605;1250;69933;-68
2023/04/01 02:53:11;;;;;;;14.20;12.30;;;;;;;20.01;53.62;98255.80;105296;1251;73563;-69
2023/04/01 02:55:40;;;;;;;13.20;11.80;;;;;;;20.01;53.22;98256.55;105470;1251;62399;-64
2023/04/01 02:58:08;;;;;;;13.60;12.20;;;;;;;19.93;53.66;98255.19;105348;1250;62130;-68
2023/04/01 03:00:37;;;;;;;13.80;11.60;;;;;;;19.84;53.63;98255.98;105691;1251;74907;-67
2023/04/01 03:03:06;;;;;;;14.30;11.90;;;;;;;19.87;53.42;98255.80;105623;1251;72279;-66
2023/04/01 03:05:42;;;;;;;12.50;11.20;;;;;;;19.75;53.95;98253.98;105295;1267;73054;-66
2023/04/01 03:08:11;;;;;;;12.40;11.00;;;;;;;19.86;53.44;98253.05;105085;1253;62040;-68
2023/04/01 03:10:40;;;;;;;16.20;10.90;;;;;;;19.87;53.29;98252.86;105671;1251;61669;-64
2023/04/01 03:13:10;;;;;;;12.20;10.60;;;;;;;19.89;53.34;98255.80;105476;1254;76348;-64
2023/04/01 03:15:39;;;;;;;13.10;11.60;;;;;;;19.86;53.22;98253.92;105267;1253;70305;-66
2023/04/01 03:18:09;;;;;;;16.40;12.00;;;;;;;19.80;53.75;98258.48;105512;1251;73952;-65
2023/04/01 03:20:39;;;;;;;13.10;11.10;;;;;;;19.89;53.34;98257.93;105214;1251;61993;-64
2023/04/01 03:23:07;;;;;;;13.10;11.80;;;;;;;19.89;53.19;98257.42;105472;1254;61596;-63
2023/04/01 03:25:36;;;;;;;12.50;11.20;;;;;;;19.90;53.17;98251.94;105201;1263;76421;-64
2023/04/01 03:28:05;;;;;;;13.20;9.80;;;;;;;19.90;53.38;98253.58;105141;1251;71090;-63
2023/04/01 03:30:33;;;;;;;12.30;10.50;;;;;;;19.93;52.88;98254.89;105587;1251;73437;-64
2023/04/01 03:33:04;;;;;;;13.90;11.20;;;;;;;20.00;52.54;98256.12;105597;1260;62351;-65
2023/04/01 03:35:35;;;;;;;11.10;10.00;;;;;;;19.93;52.99;98260.33;105345;1253;61563;-63
2023/04/01 03:38:04;;;;;;;14.60;11.00;;;;;;;19.95;53.05;98264.36;105261;1251;76319;-62
2023/04/01 03:40:34;;;;;;;11.20;10.10;;;;;;;19.94;52.81;98265.20;105012;1254;70198;-64
2023/04/01 03:43:03;;;;;;;11.30;9.90;;;;;;;19.94;52.38;98264.70;104864;1259;73958;-63
2023/04/01 03:45:43;;;;;;;13.00;11.10;;;;;;;19.84;53.21;98270.94;104320;1251;62238;-61
2023/04/01 03:48:15;;;;;;;12.50;10.50;;;;;;;19.98;53.07;98275.15;104559;1260;61663;-64
2023/04/01 03:50:44;;;;;;;11.60;10.30;;;;;;;20.06;52.55;98278.06;104198;1257;75410;-65
2023/04/01 03:53:13;;;;;;;13.30;10.90;;;;;;;19.96;52.77;98283.03;104336;1257;70410;-64
2023/04/01 03:55:42;;;;;;;12.30;10.70;;;;;;;19.90;52.60;98282.23;104590;1257;73915;-66
2023/04/01 03:58:10;;;;;;;12.40;11.10;;;;;;;19.96;52.64;98288.11;104671;1255;62262;-63
2023/04/01 04:00:43;;;;;;;12.90;10.70;;;;;;;20.00;52.17;98284.66;104702;1251;62452;-62
2023/04/01 04:03:22;;;;;;;13.40;10.80;;;;;;;20.06;52.15;98291.00;104452;1251;75781;-63
2023/04/01 04:05:51;;;;;;;13.40;10.90;;;;;;;20.03;52.17;98288.48;104328;1273;70802;-64
2023/04/01 04:08:23;;;;;;;11.70;10.60;;;;;;;19.99;52.58;98287.96;104378;1260;73623;-64
2023/04/01 04:10:55;;;;;;;12.60;10.70;;;;;;;20.00;51.75;98284.02;104527;1254;62599;-63
2023/04/01 04:13:27;;;;;;;11.70;10.10;;;;;;;19.97;52.33;98301.08;104359;1257;61671;-64
2023/04/01 04:16:00;;;;;;;12.40;10.40;;;;;;;20.09;51.97;98302.11;104522;1260;74449;-64
2023/04/01 04:18:29;;;;;;;11.60;9.90;;;;;;;20.16;52.13;98303.48;104500;1260;70285;-66
2023/04/01 04:20:58;;;;;;;12.20;10.90;;;;;;;20.16;51.72;98307.19;104423;1251;73813;-62
2023/04/01 04:23:29;;;;;;;12.90;11.30;;;;;;;20.15;51.77;98305.34;104240;1257;62318;-62
2023/04/01 04:26:07;;;;;;;12.90;10.60;;;;;;;20.17;51.45;98306.20;104232;1267;61573;-61
2023/04/01 04:28:37;;;;;;;11.90;10.60;;;;;;;20.17;51.84;98300.02;104457;1254;75566;-62
2023/04/01 04:31:07;;;;;;;11.90;10.10;;;;;;;20.16;51.21;98297.84;104336;1256;72948;-62
2023/04/01 04:33:38;;;;;;;12.00;10.40;;;;;;;20.11;51.71;98294.20;104468;1273;75484;-62
2023/04/01 04:36:07;;;;;;;12.30;10.10;;;;;;;20.22;51.71;98293.61;104459;1254;61744;-62
2023/04/01 04:38:36;;;;;;;13.40;10.40;;;;;;;20.32;51.17;98295.05;104348;1256;62653;-61
2023/04/01 04:41:15;;;;;;;13.30;10.90;;;;;;;20.32;50.70;98298.48;104428;1254;75528;-62
2023/04/01 04:43:51;;;;;;;11.30;10.10;;;;;;;20.28;50.99;98301.17;104279;1264;70129;-62
2023/04/01 04:46:20;;;;;;;11.60;9.80;;;;;;;20.30;50.94;98299.05;104254;1252;74224;-62
2023/04/01 04:48:50;;;;;;;10.80;8.80;;;;;;;20.40;50.54;98300.33;104311;1274;62901;-63
2023/04/01 04:51:19;;;;;;;9.90;8.90;;;;;;;20.38;50.32;98299.09;104309;1257;61822;-62
2023/04/01 04:53:48;;;;;;;10.00;8.80;;;;;;;20.42;50.14;98292.76;104361;1264;74646;-61
2023/04/01 04:56:25;;;;;;;10.20;9.20;;;;;;;20.40;49.85;98297.30;104375;1272;69884;-62
2023/04/01 04:59:05;;;;;;;9.70;8.60;;;;;;;20.36;49.96;98298.08;104507;1254;74366;-62
2023/04/01 05:01:42;;;;;;;10.00;8.80;;;;;;;20.32;50.83;98300.77;104250;1258;61961;-63
2023/04/01 05:04:11;;;;;;;10.10;8.90;;;;;;;20.45;50.87;98300.87;104334;1257;62480;-62
2023/04/01 05:06:40;;;;;;;11.20;9.60;;;;;;;20.59;50.69;98296.89;104496;1253;75630;-63
2023/04/01 05:09:09;;;;;;;11.00;9.60;;;;;;;20.73;50.20;98291.51;104297;1270;71190;-62
2023/04/01 05:11:37;;;;;;;13.10;9.50;;;;;;;20.79;49.44;98287.86;104306;1254;73214;-62
2023/04/01 05:14:14;;;;;;;12.60;9.80;;;;;;;20.74;50.19;98278.99;104244;1257;64462;-62
2023/04/01 05:16:45;;;;;;;12.80;9.90;;;;;;;20.73;50.00;98279.95;104503;1251;61714;-62
2023/04/01 05:19:14;;;;;;;10.40;8.90;;;;;;;20.73;50.47;98283.03;104382;1269;75163;-62
2023/04/01 05:21:43;;;;;;;12.70;11.00;;;;;;;20.79;50.03;98283.64;104271;1264;70375;-62
2023/04/01 05:24:15;;;;;;;11.20;10.00;;;;;;;20.65;49.80;98288.98;104605;1253;73147;-62
2023/04/01 05:26:44;;;;;;;11.30;10.10;;;;;;;20.49;50.31;98292.98;104290;1256;63059;-62
2023/04/01 05:29:13;;;;;;;10.80;9.40;;;;;;;20.64;50.25;98294.64;104340;1256;61653;-62
2023/04/01 05:31:42;;;;;;;9.90;8.30;;;;;;;20.71;50.09;98290.90;104225;1257;74376;-62
2023/04/01 05:34:12;;;;;;;10.50;9.50;;;;;;;20.80;49.98;98290.94;104463;1261;71677;-61
2023/04/01 05:36:41;;;;;;;13.10;10.30;;;;;;;20.85;49.52;98298.62;104290;1259;73957;-62
2023/04/01 05:39:10;;;;;;;12.50;10.30;;;;;;;20.71;49.82;98300.50;104404;1256;62118;-63
2023/04/01 05:41:40;;;;;;;12.10;10.80;;;;;;;20.70;49.78;98304.52;104389;1254;62422;-62
2023/04/01 05:44:11;;;;;;;10.90;9.80;;;;;;;20.79;49.83;98305.62;104458;1260;75388;-61
2023/04/01 05:46:43;;;;;;;10.10;9.10;;;;;;;20.86;49.71;98305.70;104366;1251;69654;-62
2023/04/01 05:49:17;;;;;;;12.50;9.40;;;;;;;20.93;49.38;98310.10;106628;1250;73160;-62
2023/04/01 05:51:46;;;;;;;11.30;9.70;;;;;;;21.03;49.31;98310.02;104588;1256;62057;-62
2023/04/01 05:54:14;;;;;;;10.40;9.40;;;;;;;21.06;49.53;98308.70;104282;1256;61593;-62
2023/04/01 05:56:45;;;;;;;10.20;8.70;;;;;;;20.99;49.43;98309.37;104560;1254;76640;-61
2023/04/01 05:59:16;;;;;;;12.20;10.20;;;;;;;20.97;49.47;98317.98;104581;1266;71420;-61
2023/04/01 06:01:45;;;;;;;10.50;9.30;;;;;;;21.01;50.12;98317.23;104403;1267;74115;-62
2023/04/01 06:04:18;;;;;;;12.40;9.30;;;;;;;21.13;49.30;98316.27;104482;1263;62553;-61
2023/04/01 06:06:47;;;;;;;13.70;10.20;;;;;;;21.12;49.25;98314.45;104231;1257;61644;-60
2023/04/01 06:09:23;;;;;;;11.90;9.60;;;;;;;21.09;49.49;98312.64;104422;1256;74562;-61
2023/04/01 06:12:13;;;;;;;11.60;10.10;;;;;;;21.14;48.87;98309.54;104469;1261;71375;-61
2023/04/01 06:15:09;;;;;;;11.30;10.10;;;;;;;21.17;48.85;98305.21;104503;1252;73509;-63
2023/04/01 06:17:57;;;;;;;12.40;10.10;;;;;;;21.22;49.40;98306.91;104294;1273;63231;-63
2023/04/01 06:20:39;;;;;;;11.30;9.30;;;;;;;21.13;49.36;98314.52;104392;1250;61650;-62
2023/04/01 06:23:15;;;;;;;10.30;8.90;;;;;;;21.11;49.08;98318.11;104224;1273;74458;-62
2023/04/01 06:26:02;;;;;;;11.70;9.50;;;;;;;21.15;49.07;98316.44;104470;1252;70865;-63
2023/04/01 06:28:52;;;;;;;11.90;10.10;;;;;;;21.20;49.50;98312.52;104223;1273;74108;-62
2023/04/01 06:31:58;;;;;;;10.00;8.80;;;;;;;21.24;49.27;98302.07;104398;1256;64666;-62
2023/04/01 06:34:40;;;;;;;10.80;8.10;;;;;;;21.26;49.44;98295.09;104281;1251;61618;-61
2023/04/01 06:37:18;;;;;;;9.10;8.20;;;;;;;21.29;48.97;98295.86;104401;1256;74463;-63
2023/04/01 06:40:03;;;;;;;11.10;8.20;;;;;;;21.34;49.27;98302.81;104331;1263;71442;-63
2023/04/01 06:43:10;;;;;;;10.30;9.20;;;;;;;21.33;49.53;98305.85;104409;1269;73667;-62
2023/04/01 06:46:25;;;;;;;10.00;9.00;;;;;;;21.41;48.94;98307.27;103943;1270;62319;-61
2023/04/01 06:49:33;;;;;;;13.60;9.60;;;;;;;21.40;48.87;98308.70;103795;1262;61734;-61
2023/04/01 06:52:26;;;;;;;9.70;8.60;;;;;;;21.51;49.35;98305.11;104451;1258;74161;-62
2023/04/01 06:55:27;;;;;;;10.30;9.10;;;;;;;21.55;49.28;98303.00;104498;1269;70730;-63
2023/04/01 06:58:56;;;;;;;10.20;8.40;;;;;;;21.57;49.34;98309.20;104300;1266;73062;-63
2023/04/01 07:01:38;;;;;;;10.30;8.40;;;;;;;21.67;49.62;98311.52;104344;1256;62483;-64
2023/04/01 07:04:18;;;;;;;9.20;8.20;;;;;;;21.77;50.40;98313.61;104376;1257;61772;-63
2023/04/01 07:06:54;;;;;;;10.20;8.00;;;;;;;21.92;49.42;98316.41;104414;1251;74234;-64
2023/04/01 07:09:30;;;;;;;9.60;8.20;;;;;;;22.01;49.33;98315.06;104356;1261;70252;-63
2023/04/01 07:12:29;;;;;;;14.70;10.80;;;;;;;22.06;48.67;98312.73;104461;1263;73835;-63
2023/04/01 07:15:33;;;;;;;9.80;8.80;;;;;;;22.06;49.06;98308.67;104332;1267;62165;-63
2023/04/01 07:18:09;;;;;;;10.50;9.10;;;;;;;22.13;48.94;98310.33;104310;1259;61663;-61
2023/04/01 07:20:38;;;;;;;11.70;8.90;;;;;;;22.19;48.72;98309.58;104343;1257;74124;-62
2023/04/01 07:23:15;;;;;;;9.60;8.70;;;;;;;22.26;48.66;98307.18;104308;1259;71280;-61
2023/04/01 07:26:00;;;;;;;9.10;8.20;;;;;;;22.31;48.64;98308.74;104325;1259;73404;-61
2023/04/01 07:28:33;;;;;;;10.20;8.40;;;;;;;22.34;48.88;98306.59;104353;1251;62229;-61
2023/04/01 07:31:33;;;;;;;9.40;8.50;;;;;;;22.50;48.83;98300.33;104300;1257;61589;-64
2023/04/01 07:34:18;;;;;;;11.80;8.70;;;;;;;22.57;48.84;98297.02;104326;1252;74458;-61
2023/04/01 07:37:01;;;;;;;10.90;9.00;;;;;;;22.64;48.13;98297.13;104460;1251;69936;-62
2023/04/01 07:39:51;;;;;;;10.90;9.60;;;;;;;22.66;48.34;98296.86;104305;1251;73471;-62
2023/04/01 07:42:54;;;;;;;12.40;10.00;;;;;;;22.77;47.79;98306.52;104475;1254;62489;-62
2023/04/01 07:45:33;;;;;;;12.80;10.80;;;;;;;22.84;47.75;98301.77;104351;1251;61901;-62
2023/04/01 07:48:27;;;;;;;16.20;11.30;;;;;;;22.85;47.79;98306.15;104776;1257;74349;-62
2023/04/01 07:51:05;;;;;;;19.10;13.30;;;;;;;22.93;47.69;98309.74;104311;1260;70623;-62
2023/04/01 07:53:54;;;;;;;18.70;13.00;;;;;;;22.95;47.63;98312.35;104271;1256;73067;-62
2023/04/01 07:57:08;;;;;;;20.90;13.50;;;;;;;23.03;47.44;98309.83;104501;1256;62663;-62
2023/04/01 08:00:10;;;;;;;19.60;14.40;;;;;;;23.15;47.16;98310.80;104246;1257;61772;-62
2023/04/01 08:03:24;;;;;;;22.80;15.20;;;;;;;23.19;46.96;98311.58;104458;1257;74590;-62
2023/04/01 08:06:19;;;;;;;20.10;13.90;;;;;;;23.25;46.90;98321.75;104453;1263;70527;-62
2023/04/01 08:08:58;;;;;;;24.30;15.70;;;;;;;23.27;46.86;98327.14;104483;1267;73207;-63
2023/04/01 08:12:01;;;;;;;21.30;14.90;;;;;;;23.28;46.62;98332.79;104483;1259;63196;-62
2023/04/01 08:15:04;;;;;;;24.40;16.30;;;;;;;23.35;46.55;98334.31;104435;1256;61676;-63
2023/04/01 08:18:11;;;;;;;24.60;15.40;;;;;;;23.38;46.19;98335.66;104367;1257;74421;-62
2023/04/01 08:20:51;;;;;;;25.80;16.00;;;;;;;23.38;46.21;98333.66;104349;1266;70860;-64
2023/04/01 08:23:36;;;;;;;23.10;15.90;;;;;;;23.47;46.02;98334.56;104216;1254;74226;-63
2023/04/01 08:26:36;;;;;;;23.00;15.50;;;;;;;23.61;45.62;98338.63;104423;1256;62786;-64
2023/04/01 08:29:20;;;;;;;25.80;15.10;;;;;;;23.66;45.79;98339.84;104245;1259;61683;-64
2023/04/01 08:31:58;;;;;;;25.60;15.20;;;;;;;23.71;45.58;98342.01;104326;1253;75604;-63
2023/04/01 08:35:10;;;;;;;19.80;14.50;;;;;;;23.74;45.59;98341.65;104353;1269;71493;-63
2023/04/01 08:37:39;;;;;;;16.20;12.90;;;;;;;23.91;45.25;98341.82;104213;1260;73004;-64
2023/04/01 08:40:16;;;;;;;20.20;14.40;;;;;;;23.88;45.08;98339.47;104286;1263;62671;-65
2023/04/01 08:42:52;;;;;;;16.20;13.80;;;;;;;23.88;44.72;98338.02;104349;1256;61633;-65
2023/04/01 08:45:25;;;;;;;20.80;14.20;;;;;;;23.91;44.62;98336.40;104312;1256;74533;-65
2023/04/01 08:48:20;;;;;;;20.00;13.70;;;;;;;23.84;44.54;98333.16;104338;1257;70196;-64
2023/04/01 08:51:41;;;;;;;20.70;13.90;;;;;;;23.90;44.63;98333.51;104346;1254;73436;-65
2023/04/01 08:54:29;;;;;;;18.40;14.40;;;;;;;23.98;45.22;98330.44;104057;1262;62663;-66
2023/04/01 08:57:31;;;;;;;17.80;14.20;;;;;;;24.07;44.90;98329.13;104283;1259;61762;-66
2023/04/01 09:00:54;;;;;;;16.30;12.80;;;;;;;24.15;44.72;98334.95;104225;1275;74284;-64
2023/04/01 09:04:17;;;;;;;16.60;13.40;;;;;;;24.22;44.55;98329.30;104172;1272;69733;-64
2023/04/01 09:07:05;;;;;;;15.60;13.00;;;;;;;24.29;44.75;98332.42;104208;1256;75196;-63
2023/04/01 09:09:43;;;;;;;19.40;13.80;;;;;;;24.37;44.63;98336.01;104307;1256;62557;-65
2023/04/01 09:12:40;;;;;;;17.60;13.70;;;;;;;24.43;44.93;98328.41;104272;1256;61913;-63
2023/04/01 09:15:57;;;;;;;17.50;13.00;;;;;;;24.55;44.70;98332.70;104094;1254;74646;-64
2023/04/01 09:18:43;;;;;;;13.60;11.80;;;;;;;24.70;44.48;98326.91;103855;1265;70077;-63
2023/04/01 09:21:34;;;;;;;13.40;11.40;;;;;;;24.80;43.92;98326.77;104310;1254;73279;-64
2023/04/01 09:24:09;;;;;;;13.40;11.30;;;;;;;24.88;43.79;98326.58;104342;1254;62634;-65
2023/04/01 09:26:59;;;;;;;12.90;11.40;;;;;;;24.93;44.34;98329.82;104253;1266;61680;-63
2023/04/01 09:29:34;;;;;;;16.90;11.20;;;;;;;25.03;44.51;98320.17;104196;1275;75421;-63
2023/04/01 09:32:25;;;;;;;13.80;11.30;;;;;;;25.12;44.42;98318.31;104321;1256;71052;-64
2023/04/01 09:35:42;;;;;;;12.40;10.50;;;;;;;25.34;43.88;98322.73;104228;1263;73365;-65
2023/04/01 09:38:30;;;;;;;12.00;9.80;;;;;;;25.48;43.30;98312.55;104303;1260;62596;-63
2023/04/01 09:41:05;;;;;;;9.70;8.60;;;;;;;25.55;43.04;98311.38;104304;1258;61599;-66
2023/04/01 09:44:40;;;;;;;9.10;8.20;;;;;;;25.71;43.43;98309.48;104207;1254;75446;-64
2023/04/01 09:47:43;;;;;;;8.30;7.50;;;;;;;25.84;42.95;98312.19;104369;1254;70744;-64
2023/04/01 09:50:23;;;;;;;9.60;6.90;;;;;;;25.89;42.85;98309.57;104346;1266;73956;-65
2023/04/01 09:53:01;;;;;;;7.50;6.50;;;;;;;25.89;42.90;98314.39;104371;1254;62116;-64
2023/04/01 09:56:17;;;;;;;7.00;6.30;;;;;;;25.90;42.66;98315.73;104464;1264;61717;-63
2023/04/01 09:59:07;;;;;;;8.30;5.90;;;;;;;26.10;42.95;98309.45;104268;1257;74361;-63
2023/04/01 10:05:23;;;;;;;7.30;6.10;;;;;;;24.71;47.56;98306.63;101330;1294;602792;-63
2023/04/01 10:08:30;;;;;;;6.70;5.90;;;;;;;26.24;42.45;98302.94;103791;1269;62948;-64
2023/04/01 10:11:11;;;;;;;;;;;;;;;26.41;41.56;98297.13;103776;1270;60489;-65
2023/04/01 10:14:03;;;;;;;5.40;4.50;;;;;;;26.46;41.16;98296.70;103678;1268;73010;-66
2023/04/01 10:17:20;;;;;;;6.40;4.80;;;;;;;26.46;41.08;98297.36;103385;1273;70554;-65
2023/04/01 10:20:26;;;;;;;5.80;4.50;;;;;;;26.50;41.30;98295.69;103693;1269;185716;-64
2023/04/01 10:22:57;;;;;;;5.00;4.50;;;;;;;26.38;40.61;98292.71;103859;1269;60987;-64
2023/04/01 10:25:54;;;;;;;6.50;4.70;;;;;;;26.43;41.08;98290.63;103929;1278;60944;-64
2023/04/01 10:28:29;;;;;;;6.00;5.50;;;;;;;26.49;40.59;98288.96;103983;1278;72930;-65
2023/04/01 10:31:48;;;;;;;5.90;4.70;;;;;;;26.58;40.68;98284.41;103946;1280;70480;-65
2023/04/01 10:34:29;;;;;;;5.30;4.70;;;;;;;26.63;39.72;98281.48;103905;1262;73941;-65
2023/04/01 10:37:26;;;;;;;6.80;4.60;;;;;;;26.55;40.04;98288.52;103920;1279;62095;-66
2023/04/01 10:40:38;;;;;;;5.50;5.00;;;;;;;26.52;39.93;98287.08;103853;1286;61250;-66
2023/04/01 10:43:41;;;;;;;6.40;5.60;;;;;;;26.55;40.59;98275.17;103863;1266;73378;-64
2023/04/01 10:46:24;;;;;;;6.50;5.80;;;;;;;26.42;40.47;98278.31;103900;1266;70907;-64
2023/04/01 10:48:59;;;;;;;6.10;5.50;;;;;;;26.49;40.44;98281.04;103796;1273;73130;-65
2023/04/01 10:52:05;;;;;;;7.00;6.30;;;;;;;26.62;40.24;98277.34;103781;1277;62363;-64
2023/04/01 10:55:15;;;;;;;7.10;5.50;;;;;;;26.72;40.60;98268.70;103941;1275;62074;-64
2023/04/01 10:58:35;;;;;;;5.70;5.10;;;;;;;26.80;40.36;98272.72;103610;1279;74592;-65
2023/04/01 11:02:04;;;;;;;6.50;5.70;;;;;;;26.84;40.02;98281.10;103555;1266;70791;-64
2023/04/01 11:05:13;;;;;;;6.30;5.40;;;;;;;26.85;39.57;98278.13;104984;1262;75189;-66
2023/04/01 11:08:08;;;;;;;6.10;5.50;;;;;;;26.70;39.40;98273.02;104072;1262;61192;-65
2023/04/01 11:11:11;;;;;;;6.10;5.50;;;;;;;26.62;39.66;98275.09;103898;1266;61493;-66
2023/04/01 11:13:49;;;;;;;6.00;5.30;;;;;;;26.59;39.56;98270.56;104074;1264;73533;-63
2023/04/01 11:16:50;;;;;;;;;;;;;;;26.53;39.53;98269.41;103878;1264;71086;-65
2023/04/01 11:19:42;;;;;;;5.70;5.10;;;;;;;26.67;39.01;98260.15;103481;1286;73379;-64
2023/04/01 11:22:35;;;;;;;4.90;4.50;;;;;;;26.66;39.38;98251.89;103642;1268;62378;-63
2023/04/01 11:25:35;;;;;;;5.20;4.70;;;;;;;26.85;39.12;98245.10;103911;1266;61276;-64
2023/04/01 11:28:50;;;;;;;4.90;4.40;;;;;;;27.03;38.97;98240.11;103939;1276;73355;-64
2023/04/01 11:31:53;;;;;;;5.10;4.60;;;;;;;27.16;39.10;98232.61;103876;1266;70309;-64
2023/04/01 11:34:23;;;;;;;4.10;3.80;;;;;;;27.31;38.58;98233.72;104180;1272;73395;-64
2023/04/01 11:36:55;;;;;;;4.20;3.80;;;;;;;27.36;38.58;98232.98;104387;1270;61134;-63
2023/04/01 11:39:55;;;;;;;5.60;4.20;;;;;;;27.39;38.77;98230.48;104562;1254;61235;-62
2023/04/01 11:43:27;;;;;;;3.30;3.00;;;;;;;27.39;38.42;98225.59;104485;1260;73487;-62
2023/04/01 11:46:44;;;;;;;4.40;4.00;;;;;;;27.41;38.26;98220.44;104276;1264;70428;-67
2023/04/01 11:49:32;;;;;;;3.90;3.60;;;;;;;27.37;38.32;98215.49;104148;1268;74705;-64
2023/04/01 11:52:42;;;;;;;6.50;3.40;;;;;;;27.37;38.00;98208.11;104559;1257;61694;-63
2023/04/01 11:55:17;;;;;;;3.90;3.50;;;;;;;27.32;37.92;98207.58;104586;1254;60646;-62
2023/04/01 11:58:05;;;;;;;4.30;3.60;;;;;;;27.27;37.68;98208.69;105367;1252;74704;-64
2023/04/01 12:00:47;;;;;;;3.60;2.90;;;;;;;27.38;37.54;98204.25;104390;1260;69810;-61
2023/04/01 12:03:35;;;;;;;3.10;2.80;;;;;;;27.31;37.19;98205.84;104251;1269;73187;-63
2023/04/01 12:06:19;;;;;;;5.30;3.40;;;;;;;27.35;36.84;98207.03;104449;1255;60478;-63
2023/04/01 12:08:57;;;;;;;3.00;2.80;;;;;;;27.19;36.65;98205.80;104317;1269;60795;-62
2023/04/01 12:11:51;;;;;;;4.00;2.70;;;;;;;27.20;37.07;98207.30;104304;1254;75548;-63
2023/04/01 12:14:33;;;;;;;2.90;2.40;;;;;;;27.26;36.77;98211.23;104433;1257;71270;-64
2023/04/01 12:17:09;;;;;;;4.10;2.60;;;;;;;27.21;35.56;98208.30;104321;1261;74436;-62
2023/04/01 12:19:56;;;;;;;3.00;2.60;;;;;;;27.15;35.51;98208.50;104411;1261;62051;-63
2023/04/01 12:22:44;;;;;;;3.50;2.90;;;;;;;27.18;35.58;98204.88;104559;1257;60775;-61
2023/04/01 12:25:57;;;;;;;3.00;2.60;;;;;;;27.02;35.57;98198.15;104530;1256;74988;-62